In Rescue
 
Open Full Screen Window  High Contrast Mode
April 02, 2020 11:41 PM CDT
Present Weather: Drizzle
Weather Information
Wind Direction
  ---
Wind Speed
  00 kt (0 mph)
Wind Gust
  00 kt (0 mph)
Altimeter
29.91 in
Visibility
10 SM
Temperature
05° C
41° F
Dewpoint
03° C
37° F
Humidity
87%
1hr Rain Fall
00.00 in.
24hr Rain Fall
00.04 in.
Sky Condition
Overcast @ 3,400 ft
Broken @ 2,800 ft
MVFR

METAR KAIT 030441Z AUTO 00000KT 10SM DZ BKN028 OVC034 05/03 A2991 RMK AO2

FAA Disclaimer: The data displayed is for advisory purposes only and is not to be used for flight planning or operations.